Time;durP1;ratioP1;P1;durP2;ratioP2;P2;SDS_P1;SDS_P2;PMS_P1;PMS_P2;Temp;Humidity;BMP_temperature;BMP_pressure;BME280_temperature;BME280_humidity;BME280_pressure;Samples;Min_cycle;Max_cycle;Signal;HPM_P1;HPM_P2
2022/04/17 00:01:49;;;;;;;19.63;10.30;;;;;;;;;;10429569;28;20028;-73
2022/04/17 00:06:50;;;;;;;18.30;10.63;;;;;;;;;;10428850;28;20079;-70
2022/04/17 00:11:50;;;;;;;14.97;10.70;;;;;;;;;;10428828;28;20021;-70
2022/04/17 00:16:50;;;;;;;18.20;9.57;;;;;;;;;;10428432;28;20484;-69
2022/04/17 00:21:51;;;;;;;16.33;10.68;;;;;;;;;;10446489;28;20028;-64
2022/04/17 00:26:51;;;;;;;16.77;11.27;;;;;;;;;;10429381;28;20476;-71
2022/04/17 00:31:51;;;;;;;18.38;10.73;;;;;;;;;;10428443;28;20112;-72
2022/04/17 00:36:52;;;;;;;16.58;10.45;;;;;;;;;;10427804;28;20081;-77
2022/04/17 00:41:53;;;;;;;22.58;12.63;;;;;;;;;;10427739;28;20051;-70
2022/04/17 00:46:54;;;;;;;22.17;11.55;;;;;;;;;;10427296;28;20065;-71
2022/04/17 00:51:54;;;;;;;14.67;9.73;;;;;;;;;;10427695;28;20044;-76
2022/04/17 00:56:55;;;;;;;19.48;12.05;;;;;;;;;;10427805;28;20040;-73
2022/04/17 01:01:55;;;;;;;19.23;11.90;;;;;;;;;;10426897;28;20025;-71
2022/04/17 01:06:55;;;;;;;17.37;11.60;;;;;;;;;;10426954;28;20144;-70
2022/04/17 01:11:56;;;;;;;20.65;10.80;;;;;;;;;;10426084;28;20112;-69
2022/04/17 01:16:56;;;;;;;15.50;11.02;;;;;;;;;;10409724;28;20025;-69
2022/04/17 01:21:57;;;;;;;17.63;10.03;;;;;;;;;;10426189;28;20504;-70
2022/04/17 01:27:00;;;;;;;19.47;12.53;;;;;;;;;;10425901;28;20021;-74
2022/04/17 01:32:01;;;;;;;17.05;10.65;;;;;;;;;;10443969;28;20017;-73
2022/04/17 01:37:02;;;;;;;17.50;10.27;;;;;;;;;;10425592;28;20059;-75
2022/04/17 01:42:03;;;;;;;16.65;9.73;;;;;;;;;;10425569;28;20619;-70
2022/04/17 01:47:03;;;;;;;17.08;9.85;;;;;;;;;;10427814;28;20052;-70
2022/04/17 01:52:04;;;;;;;19.85;9.82;;;;;;;;;;10425517;28;20033;-75
2022/04/17 01:57:04;;;;;;;14.27;9.38;;;;;;;;;;10409182;28;20116;-69
2022/04/17 02:02:05;;;;;;;15.17;9.80;;;;;;;;;;10444271;28;20025;-73
2022/04/17 02:07:05;;;;;;;18.17;11.65;;;;;;;;;;10443350;28;20037;-70
2022/04/17 02:12:05;;;;;;;16.73;10.50;;;;;;;;;;10442890;28;20029;-70
2022/04/17 02:17:06;;;;;;;17.85;10.23;;;;;;;;;;10435242;28;20347;-72
2022/04/17 02:22:06;;;;;;;16.75;9.20;;;;;;;;;;10425916;28;20025;-73
2022/04/17 02:27:06;;;;;;;17.15;9.45;;;;;;;;;;10425167;28;20033;-70
2022/04/17 02:32:07;;;;;;;14.60;9.98;;;;;;;;;;10443258;28;20029;-73
2022/04/17 02:37:07;;;;;;;22.58;10.77;;;;;;;;;;10431642;28;20029;-69
2022/04/17 02:42:07;;;;;;;18.73;10.80;;;;;;;;;;10434246;28;20207;-69
2022/04/17 02:52:27;;;;;;;14.90;9.23;;;;;;;;;;10449459;28;20025;-67
2022/04/17 02:57:28;;;;;;;17.38;9.88;;;;;;;;;;10414499;28;20025;-70
2022/04/17 03:07:47;;;;;;;26.13;15.98;;;;;;;;;;10448292;28;20104;-69
2022/04/17 03:12:48;;;;;;;27.60;14.73;;;;;;;;;;10429936;28;20016;-75
2022/04/17 03:17:48;;;;;;;25.80;13.40;;;;;;;;;;10430430;28;20029;-70
2022/04/17 03:22:49;;;;;;;21.50;11.73;;;;;;;;;;10447490;28;20028;-69
2022/04/17 03:27:49;;;;;;;24.10;12.13;;;;;;;;;;10430245;28;20036;-69
2022/04/17 03:32:50;;;;;;;17.50;9.77;;;;;;;;;;10429909;28;20017;-68
2022/04/17 03:37:51;;;;;;;19.20;10.60;;;;;;;;;;10429233;28;20021;-67
2022/04/17 03:42:51;;;;;;;19.50;11.23;;;;;;;;;;10429337;28;20120;-69
2022/04/17 03:47:51;;;;;;;22.23;10.82;;;;;;;;;;10444328;28;1191102;-69
2022/04/17 03:52:52;;;;;;;19.13;11.20;;;;;;;;;;10472605;28;20031;-68
2022/04/17 03:57:52;;;;;;;20.10;11.30;;;;;;;;;;10473383;28;20292;-74
2022/04/17 04:02:52;;;;;;;21.23;11.60;;;;;;;;;;10472170;28;20017;-70
2022/04/17 04:07:52;;;;;;;22.40;11.88;;;;;;;;;;10471226;28;20070;-69
2022/04/17 04:12:53;;;;;;;20.13;12.10;;;;;;;;;;10471912;28;20021;-68
2022/04/17 04:17:53;;;;;;;24.38;13.75;;;;;;;;;;10471718;28;20017;-70
2022/04/17 04:22:54;;;;;;;23.95;13.10;;;;;;;;;;10471506;28;20023;-69
2022/04/17 04:33:14;;;;;;;24.35;13.45;;;;;;;;;;10464988;28;20427;-71
2022/04/17 04:38:14;;;;;;;27.92;13.27;;;;;;;;;;10427928;28;20017;-68
2022/04/17 04:43:14;;;;;;;23.75;14.85;;;;;;;;;;10428435;28;20063;-69
2022/04/17 04:48:15;;;;;;;28.33;14.57;;;;;;;;;;10404015;28;20527;-69
2022/04/17 04:53:15;;;;;;;31.73;14.18;;;;;;;;;;10404218;28;20028;-71
2022/04/17 04:58:15;;;;;;;33.70;16.92;;;;;;;;;;10401823;28;20022;-69
2022/04/17 05:03:15;;;;;;;32.55;14.55;;;;;;;;;;10401211;28;20052;-69
2022/04/17 05:08:16;;;;;;;25.45;12.88;;;;;;;;;;10403066;28;20460;-70
2022/04/17 05:13:17;;;;;;;22.85;11.88;;;;;;;;;;10402310;28;20036;-70
2022/04/17 05:18:17;;;;;;;28.05;12.05;;;;;;;;;;10404379;28;20014;-69
2022/04/17 05:23:27;;;;;;;21.88;13.02;;;;;;;;;;10402792;28;20025;-71
2022/04/17 05:28:28;;;;;;;28.92;14.50;;;;;;;;;;10419446;28;20026;-70
2022/04/17 05:33:28;;;;;;;25.17;12.77;;;;;;;;;;10402581;28;20448;-70
2022/04/17 05:38:28;;;;;;;24.08;12.45;;;;;;;;;;10402832;28;20044;-71
2022/04/17 05:43:29;;;;;;;21.35;9.88;;;;;;;;;;10403305;28;20033;-69
2022/04/17 05:48:29;;;;;;;26.20;12.23;;;;;;;;;;10401413;28;20065;-71
2022/04/17 05:53:29;;;;;;;23.93;12.70;;;;;;;;;;10443645;28;20054;-70
2022/04/17 05:58:30;;;;;;;22.90;12.50;;;;;;;;;;10443636;28;20033;-70
2022/04/17 06:03:30;;;;;;;23.63;13.35;;;;;;;;;;10416097;28;20017;-71
2022/04/17 06:08:30;;;;;;;22.52;10.77;;;;;;;;;;10407176;28;20025;-74
2022/04/17 06:13:31;;;;;;;16.07;9.93;;;;;;;;;;10444106;28;20515;-70
2022/04/17 06:18:31;;;;;;;19.02;10.55;;;;;;;;;;10441874;28;20104;-73
2022/04/17 06:23:31;;;;;;;18.45;11.48;;;;;;;;;;10400647;28;20440;-71
2022/04/17 06:28:32;;;;;;;18.67;10.80;;;;;;;;;;10399563;28;20022;-69
2022/04/17 06:33:32;;;;;;;20.45;11.07;;;;;;;;;;10401024;28;20401;-75
2022/04/17 06:38:32;;;;;;;20.52;10.73;;;;;;;;;;10401869;28;20025;-75
2022/04/17 06:43:33;;;;;;;17.90;10.03;;;;;;;;;;10402379;28;20071;-71
2022/04/17 06:48:33;;;;;;;19.65;11.45;;;;;;;;;;10449183;28;20059;-71
2022/04/17 06:53:34;;;;;;;18.50;10.87;;;;;;;;;;10431885;28;20179;-72
2022/04/17 06:58:34;;;;;;;17.30;9.80;;;;;;;;;;10425150;28;20496;-72
2022/04/17 07:03:34;;;;;;;18.97;10.63;;;;;;;;;;10443134;28;20148;-71
2022/04/17 07:08:35;;;;;;;21.90;10.80;;;;;;;;;;10424905;28;20025;-71
2022/04/17 07:13:35;;;;;;;22.33;9.80;;;;;;;;;;10442898;28;20260;-72
2022/04/17 07:18:35;;;;;;;24.30;10.07;;;;;;;;;;10441977;28;20017;-72
2022/04/17 07:23:36;;;;;;;21.40;11.65;;;;;;;;;;10414821;28;20405;-71
2022/04/17 07:28:37;;;;;;;14.67;8.63;;;;;;;;;;10450047;28;20028;-70
2022/04/17 07:33:37;;;;;;;17.33;10.15;;;;;;;;;;10439153;28;20099;-74
2022/04/17 07:38:37;;;;;;;15.85;9.05;;;;;;;;;;10473301;28;20024;-70
2022/04/17 07:43:38;;;;;;;17.50;9.82;;;;;;;;;;10490629;28;20439;-72
2022/04/17 07:48:38;;;;;;;17.27;9.23;;;;;;;;;;10491066;28;20051;-75
2022/04/17 07:53:38;;;;;;;14.13;8.88;;;;;;;;;;10473128;28;20029;-71
2022/04/17 07:58:39;;;;;;;15.43;8.68;;;;;;;;;;10471795;28;20638;-71
2022/04/17 08:08:40;;;;;;;14.27;7.88;;;;;;;;;;10489663;28;20530;-74
2022/04/17 08:13:42;;;;;;;12.88;8.35;;;;;;;;;;10471743;28;20027;-74
2022/04/17 08:18:42;;;;;;;13.82;8.13;;;;;;;;;;10489156;28;20027;-72
2022/04/17 08:23:42;;;;;;;12.23;7.30;;;;;;;;;;10429872;28;20477;-72
2022/04/17 08:28:43;;;;;;;13.40;7.38;;;;;;;;;;10429478;28;20029;-70
2022/04/17 08:33:43;;;;;;;13.82;8.23;;;;;;;;;;10428346;28;20543;-71
2022/04/17 08:38:43;;;;;;;16.50;7.73;;;;;;;;;;10429571;28;20017;-71
2022/04/17 08:43:45;;;;;;;15.73;8.07;;;;;;;;;;10428873;28;20466;-72
2022/04/17 08:48:45;;;;;;;9.38;6.40;;;;;;;;;;10447480;28;20029;-71
2022/04/17 08:53:48;;;;;;;14.10;7.43;;;;;;;;;;10427768;28;20060;-76
2022/04/17 08:58:48;;;;;;;10.65;6.80;;;;;;;;;;10429012;28;20028;-73
2022/04/17 09:03:48;;;;;;;12.53;6.77;;;;;;;;;;10428560;28;20032;-71
2022/04/17 09:08:58;;;;;;;10.77;6.97;;;;;;;;;;10444512;28;20112;-71
2022/04/17 09:14:00;;;;;;;14.13;7.70;;;;;;;;;;10445518;28;20029;-73
2022/04/17 09:19:10;;;;;;;15.60;7.68;;;;;;;;;;10427331;28;20071;-70
2022/04/17 09:24:15;;;;;;;12.23;7.13;;;;;;;;;;10451148;28;20108;-71
2022/04/17 09:29:16;;;;;;;11.55;6.50;;;;;;;;;;10425001;28;20013;-71
2022/04/17 09:34:16;;;;;;;9.70;6.20;;;;;;;;;;10458155;28;20017;-70
2022/04/17 09:39:19;;;;;;;11.32;6.75;;;;;;;;;;10470242;28;20055;-72
2022/04/17 09:44:36;;;;;;;6.43;4.93;;;;;;;;;;10456154;28;20423;-72
2022/04/17 09:49:50;;;;;;;19.02;5.57;;;;;;;;;;10459977;28;20028;-76
2022/04/17 09:54:52;;;;;;;14.68;6.43;;;;;;;;;;10470347;28;20162;-72
2022/04/17 09:59:53;;;;;;;8.80;5.03;;;;;;;;;;10446654;28;20033;-70
2022/04/17 10:04:53;;;;;;;9.23;5.88;;;;;;;;;;10439816;28;20033;-71
2022/04/17 10:09:54;;;;;;;7.53;5.63;;;;;;;;;;10453263;28;20514;-74
2022/04/17 10:14:54;;;;;;;7.95;5.15;;;;;;;;;;10452439;28;20021;-76
2022/04/17 10:19:55;;;;;;;9.50;4.85;;;;;;;;;;10549337;22;20122;-72
2022/04/17 10:24:57;;;;;;;9.55;5.15;;;;;;;;;;10548652;28;20027;-71
2022/04/17 10:30:07;;;;;;;14.98;7.80;;;;;;;;;;10527598;28;20055;-70
2022/04/17 10:35:09;;;;;;;12.65;5.78;;;;;;;;;;10550858;28;20121;-72
2022/04/17 10:40:10;;;;;;;4.07;1.38;;;;;;;;;;10549500;28;20081;-72
2022/04/17 10:45:11;;;;;;;8.55;4.47;;;;;;;;;;10549913;28;20515;-72
2022/04/17 10:50:13;;;;;;;5.90;1.30;;;;;;;;;;10538237;28;20441;-74
2022/04/17 10:55:18;;;;;;;1.15;0.95;;;;;;;;;;10511818;28;20032;-73
2022/04/17 11:00:31;;;;;;;1.80;1.00;;;;;;;;;;10558716;28;20435;-71
2022/04/17 11:06:05;;;;;;;3.17;0.93;;;;;;;;;;10556861;28;20529;-72
2022/04/17 11:11:00;;;;;;;1.38;1.17;;;;;;;;;;10553492;28;20043;-71
2022/04/17 11:16:06;;;;;;;2.15;1.50;;;;;;;;;;10515258;28;20044;-71
2022/04/17 11:21:09;;;;;;;2.33;1.35;;;;;;;;;;10526318;28;20024;-72
2022/04/17 11:26:09;;;;;;;2.25;0.82;;;;;;;;;;10514676;28;20047;-71
2022/04/17 11:31:10;;;;;;;1.60;0.70;;;;;;;;;;10514907;28;20452;-71
2022/04/17 11:36:11;;;;;;;0.85;0.55;;;;;;;;;;10533878;28;20049;-72
2022/04/17 11:41:13;;;;;;;1.27;0.90;;;;;;;;;;10528990;28;20023;-71
2022/04/17 11:46:13;;;;;;;2.20;1.20;;;;;;;;;;10532831;28;20038;-71
2022/04/17 11:51:18;;;;;;;0.80;0.75;;;;;;;;;;10574359;28;20030;-71
2022/04/17 11:56:19;;;;;;;2.58;0.70;;;;;;;;;;10537156;28;20012;-72
2022/04/17 12:01:22;;;;;;;2.63;0.90;;;;;;;;;;10514597;28;20407;-71
2022/04/17 12:06:32;;;;;;;1.00;0.70;;;;;;;;;;10498723;28;20120;-78
2022/04/17 12:11:33;;;;;;;2.95;0.98;;;;;;;;;;10513957;28;20629;-69
2022/04/17 12:16:49;;;;;;;4.85;1.63;;;;;;;;;;10530905;28;20130;-71
2022/04/17 12:21:49;;;;;;;2.05;1.02;;;;;;;;;;10512368;28;20047;-71
2022/04/17 12:26:49;;;;;;;1.63;0.57;;;;;;;;;;10512334;28;20028;-72
2022/04/17 12:31:50;;;;;;;0.80;0.60;;;;;;;;;;10530204;28;20475;-72
2022/04/17 12:36:50;;;;;;;1.73;1.20;;;;;;;;;;10512395;28;20020;-72
2022/04/17 12:41:53;;;;;;;1.58;1.10;;;;;;;;;;10512114;28;20036;-71
2022/04/17 12:46:54;;;;;;;1.50;0.90;;;;;;;;;;10556251;23;20459;-75
2022/04/17 12:51:55;;;;;;;3.33;1.00;;;;;;;;;;10529170;28;20097;-73
2022/04/17 12:57:05;;;;;;;2.72;1.40;;;;;;;;;;10549950;28;20023;-74
2022/04/17 13:02:13;;;;;;;4.03;1.60;;;;;;;;;;10530515;28;20106;-74
2022/04/17 13:07:14;;;;;;;2.53;1.38;;;;;;;;;;10550729;28;20040;-73
2022/04/17 13:12:28;;;;;;;2.50;1.67;;;;;;;;;;10531197;28;20027;-72
2022/04/17 13:17:28;;;;;;;5.38;2.10;;;;;;;;;;10527102;28;20473;-71
2022/04/17 13:22:29;;;;;;;2.27;1.40;;;;;;;;;;10528614;28;20038;-71
2022/04/17 13:27:29;;;;;;;4.33;1.73;;;;;;;;;;10528052;28;20038;-74
2022/04/17 13:32:29;;;;;;;3.63;2.25;;;;;;;;;;10531927;28;20032;-73
2022/04/17 13:42:49;;;;;;;5.32;2.17;;;;;;;;;;10545843;28;20410;-70
2022/04/17 13:47:49;;;;;;;3.67;1.30;;;;;;;;;;10529045;28;20032;-74
2022/04/17 13:52:50;;;;;;;2.80;1.90;;;;;;;;;;10511614;28;20053;-71
2022/04/17 13:57:51;;;;;;;3.72;1.63;;;;;;;;;;10546118;28;20020;-74
2022/04/17 14:02:51;;;;;;;3.63;1.65;;;;;;;;;;10531190;28;20020;-70
2022/04/17 14:07:51;;;;;;;4.60;1.58;;;;;;;;;;10533036;28;20027;-70
2022/04/17 14:12:52;;;;;;;3.33;2.17;;;;;;;;;;10546865;28;20142;-72
2022/04/17 14:17:52;;;;;;;6.07;2.38;;;;;;;;;;10530004;28;20038;-70
2022/04/17 14:22:52;;;;;;;3.95;1.65;;;;;;;;;;10529648;28;20054;-69
2022/04/17 14:27:53;;;;;;;3.37;1.90;;;;;;;;;;10544958;28;20042;-69
2022/04/17 14:32:53;;;;;;;3.53;1.90;;;;;;;;;;10536627;28;20119;-73
2022/04/17 14:37:53;;;;;;;3.15;1.33;;;;;;;;;;10535967;28;20077;-69
2022/04/17 14:42:54;;;;;;;2.37;1.90;;;;;;;;;;10535945;28;20064;-70
2022/04/17 14:47:54;;;;;;;2.08;1.40;;;;;;;;;;10556443;28;20031;-73
2022/04/17 14:52:55;;;;;;;3.42;1.55;;;;;;;;;;10537223;28;20585;-70
2022/04/17 14:57:55;;;;;;;3.90;2.40;;;;;;;;;;10534643;28;20031;-70
2022/04/17 15:02:55;;;;;;;5.53;3.33;;;;;;;;;;10554499;28;20042;-70
2022/04/17 15:07:55;;;;;;;4.63;2.40;;;;;;;;;;10525820;27;20032;-69
2022/04/17 15:12:56;;;;;;;4.03;2.13;;;;;;;;;;10534066;28;20410;-72
2022/04/17 15:17:56;;;;;;;4.07;2.20;;;;;;;;;;10531675;28;20028;-68
2022/04/17 15:22:57;;;;;;;3.80;1.60;;;;;;;;;;10538221;27;20130;-69
2022/04/17 15:27:57;;;;;;;1.75;1.05;;;;;;;;;;10537398;28;20475;-71
2022/04/17 15:32:57;;;;;;;2.47;1.40;;;;;;;;;;10545341;28;20036;-71
2022/04/17 15:37:57;;;;;;;2.17;1.05;;;;;;;;;;10531023;28;20518;-72
2022/04/17 15:47:54;;;;;;;1.17;0.98;;;;;;;;;;10512542;28;20043;-70
2022/04/17 15:48:18;;;;;;;1.20;1.08;;;;;;;;;;10533588;28;20040;-70
2022/04/17 15:53:18;;;;;;;6.43;3.00;;;;;;;;;;10521547;28;20484;-69
2022/04/17 15:58:18;;;;;;;6.60;4.05;;;;;;;;;;10525121;27;20111;-69
2022/04/17 16:03:19;;;;;;;4.03;3.08;;;;;;;;;;10550470;28;20040;-68
2022/04/17 16:08:19;;;;;;;6.27;3.23;;;;;;;;;;10515535;28;20035;-74
2022/04/17 16:13:19;;;;;;;4.27;2.20;;;;;;;;;;10515442;28;20028;-71
2022/04/17 16:18:20;;;;;;;1.52;1.08;;;;;;;;;;10518428;28;20796;-69
2022/04/17 16:23:20;;;;;;;3.57;1.80;;;;;;;;;;10529912;28;20020;-70
2022/04/17 16:28:20;;;;;;;1.52;0.93;;;;;;;;;;10529873;28;20089;-69
2022/04/17 16:33:21;;;;;;;1.95;1.00;;;;;;;;;;10520276;28;20097;-69
2022/04/17 16:38:21;;;;;;;1.80;1.13;;;;;;;;;;10516233;28;20020;-69
2022/04/17 16:43:21;;;;;;;0.88;0.75;;;;;;;;;;10514680;28;20139;-70
2022/04/17 16:48:21;;;;;;;1.77;1.60;;;;;;;;;;10497270;28;20043;-69
2022/04/17 16:53:23;;;;;;;2.58;1.40;;;;;;;;;;10529690;28;20293;-68
2022/04/17 17:03:49;;;;;;;3.17;2.13;;;;;;;;;;10527340;28;20020;-69
2022/04/17 17:08:49;;;;;;;2.72;1.77;;;;;;;;;;10510790;28;20020;-69
2022/04/17 17:13:49;;;;;;;2.63;1.60;;;;;;;;;;10512773;28;20015;-69
2022/04/17 17:18:50;;;;;;;1.63;1.50;;;;;;;;;;10527576;28;20411;-70
2022/04/17 17:23:50;;;;;;;1.17;0.88;;;;;;;;;;10527147;28;20020;-69
2022/04/17 17:28:50;;;;;;;3.00;1.47;;;;;;;;;;10511392;28;20419;-70
2022/04/17 17:33:51;;;;;;;3.58;0.90;;;;;;;;;;10514430;28;20506;-70
2022/04/17 17:38:51;;;;;;;13.52;4.03;;;;;;;;;;10520880;28;20150;-69
2022/04/17 17:43:51;;;;;;;1.75;1.25;;;;;;;;;;10524904;28;20052;-69
2022/04/17 17:48:51;;;;;;;1.35;1.25;;;;;;;;;;10522607;28;20024;-70
2022/04/17 17:53:53;;;;;;;2.45;1.27;;;;;;;;;;10527779;28;20475;-69
2022/04/17 17:58:53;;;;;;;1.83;1.60;;;;;;;;;;10547196;27;20023;-69
2022/04/17 18:03:53;;;;;;;1.23;0.98;;;;;;;;;;10520233;28;20012;-70
2022/04/17 18:14:31;;;;;;;1.25;0.75;;;;;;;;;;10540587;28;20487;-70
2022/04/17 18:19:31;;;;;;;2.45;2.22;;;;;;;;;;10540101;28;20020;-70
2022/04/17 18:24:32;;;;;;;1.40;1.10;;;;;;;;;;10524104;28;20032;-70
2022/04/17 18:29:32;;;;;;;2.13;0.93;;;;;;;;;;10518883;28;20016;-71
2022/04/17 18:34:33;;;;;;;1.85;1.60;;;;;;;;;;10512106;28;20081;-69
2022/04/17 18:39:33;;;;;;;2.17;0.90;;;;;;;;;;10526806;28;20020;-70
2022/04/17 18:44:33;;;;;;;5.73;1.80;;;;;;;;;;10512549;28;20056;-70
2022/04/17 18:49:34;;;;;;;1.27;0.80;;;;;;;;;;10507733;28;20024;-70
2022/04/17 18:54:35;;;;;;;5.20;0.88;;;;;;;;;;10509087;28;20266;-69
2022/04/17 18:59:35;;;;;;;2.60;0.98;;;;;;;;;;10529143;28;20483;-69
2022/04/17 19:04:36;;;;;;;1.55;1.20;;;;;;;;;;10506816;28;20028;-69
2022/04/17 19:09:37;;;;;;;1.30;1.20;;;;;;;;;;10511392;28;20077;-70
2022/04/17 19:14:38;;;;;;;1.70;0.73;;;;;;;;;;10529480;28;20115;-69
2022/04/17 19:19:39;;;;;;;0.68;0.68;;;;;;;;;;10514482;28;20138;-70
2022/04/17 19:24:39;;;;;;;0.73;0.73;;;;;;;;;;10521937;28;20069;-69
2022/04/17 19:29:39;;;;;;;0.98;0.70;;;;;;;;;;10532888;28;20487;-70
2022/04/17 19:39:58;;;;;;;1.58;1.40;;;;;;;;;;10533959;28;20043;-71
2022/04/17 19:44:59;;;;;;;0.97;0.80;;;;;;;;;;10517720;28;20048;-71
2022/04/17 19:49:59;;;;;;;1.07;1.00;;;;;;;;;;10534291;28;20668;-70
2022/04/17 19:55:00;;;;;;;0.63;0.60;;;;;;;;;;10532833;28;20081;-70
2022/04/17 20:00:00;;;;;;;1.35;1.05;;;;;;;;;;10544704;27;20491;-71
2022/04/17 20:05:01;;;;;;;1.05;0.93;;;;;;;;;;10550043;28;20136;-75
2022/04/17 20:10:01;;;;;;;0.68;0.68;;;;;;;;;;10548840;28;20027;-70
2022/04/17 20:15:02;;;;;;;0.55;0.50;;;;;;;;;;10516604;28;20028;-69
2022/04/17 20:20:02;;;;;;;0.82;0.82;;;;;;;;;;10555139;28;20107;-75
2022/04/17 20:25:03;;;;;;;0.50;0.50;;;;;;;;;;10572249;28;20047;-71
2022/04/17 20:30:03;;;;;;;0.40;0.40;;;;;;;;;;10540138;28;20483;-74
2022/04/17 20:35:04;;;;;;;0.93;0.70;;;;;;;;;;10509589;28;20012;-71
2022/04/17 20:40:05;;;;;;;1.42;1.02;;;;;;;;;;10509823;28;20035;-70
2022/04/17 20:50:34;;;;;;;4.20;1.20;;;;;;;;;;10529360;28;20032;-72
2022/04/17 20:55:35;;;;;;;1.70;1.45;;;;;;;;;;10511681;28;20413;-72
2022/04/17 21:00:35;;;;;;;4.05;1.95;;;;;;;;;;10511017;28;20027;-70
2022/04/17 21:05:36;;;;;;;6.25;2.63;;;;;;;;;;10511457;28;20049;-71
2022/04/17 21:10:36;;;;;;;3.30;2.15;;;;;;;;;;10511501;28;20400;-71
2022/04/17 21:15:36;;;;;;;1.88;1.65;;;;;;;;;;10511535;28;20025;-70
2022/04/17 21:20:36;;;;;;;3.70;3.40;;;;;;;;;;10511384;28;20420;-68
2022/04/17 21:25:37;;;;;;;3.63;3.33;;;;;;;;;;10511119;28;20024;-71
2022/04/17 21:30:40;;;;;;;3.22;3.03;;;;;;;;;;10510977;28;20063;-71
2022/04/17 21:35:40;;;;;;;4.72;4.43;;;;;;;;;;10510832;28;20476;-71
2022/04/17 21:40:41;;;;;;;3.08;2.65;;;;;;;;;;10510769;28;20016;-77
2022/04/17 21:45:41;;;;;;;2.10;2.00;;;;;;;;;;10515218;28;20044;-71
2022/04/17 21:50:41;;;;;;;1.87;1.77;;;;;;;;;;10511352;28;20024;-69
2022/04/17 21:55:41;;;;;;;2.47;2.03;;;;;;;;;;10510790;28;20026;-71
2022/04/17 22:06:01;;;;;;;4.65;4.35;;;;;;;;;;10528011;28;20028;-73
2022/04/17 22:11:02;;;;;;;4.80;4.35;;;;;;;;;;10509438;28;20028;-70
2022/04/17 22:16:02;;;;;;;6.22;5.82;;;;;;;;;;10509978;28;20071;-71
2022/04/17 22:21:02;;;;;;;2.58;2.47;;;;;;;;;;10526616;28;20487;-70
2022/04/17 22:26:03;;;;;;;3.80;3.60;;;;;;;;;;10509650;28;20498;-71
2022/04/17 22:31:04;;;;;;;1.92;1.83;;;;;;;;;;10508967;28;20653;-74
2022/04/17 22:36:05;;;;;;;2.17;2.00;;;;;;;;;;10508966;28;20016;-71
2022/04/17 22:41:06;;;;;;;1.17;1.10;;;;;;;;;;10509106;28;20031;-70
2022/04/17 22:46:06;;;;;;;1.25;0.90;;;;;;;;;;10509013;28;20055;-74
2022/04/17 22:51:07;;;;;;;2.80;2.60;;;;;;;;;;10527817;28;20090;-74
2022/04/17 22:56:07;;;;;;;1.02;1.02;;;;;;;;;;10516993;28;20127;-69
2022/04/17 23:01:11;;;;;;;2.40;2.30;;;;;;;;;;10516825;28;20028;-74
2022/04/17 23:06:11;;;;;;;3.50;3.38;;;;;;;;;;10516256;28;20016;-69
2022/04/17 23:11:12;;;;;;;1.70;1.70;;;;;;;;;;10516628;28;20020;-71
2022/04/17 23:16:12;;;;;;;0.88;0.70;;;;;;;;;;10516857;28;20100;-77
2022/04/17 23:21:12;;;;;;;1.00;1.00;;;;;;;;;;10533791;28;20024;-77
2022/04/17 23:26:13;;;;;;;1.75;0.88;;;;;;;;;;10515931;28;20020;-70
2022/04/17 23:31:13;;;;;;;0.90;0.90;;;;;;;;;;10533458;28;20016;-70
2022/04/17 23:36:13;;;;;;;0.82;0.82;;;;;;;;;;10515469;28;20258;-70
2022/04/17 23:41:13;;;;;;;1.15;1.15;;;;;;;;;;10515282;28;20494;-71
2022/04/17 23:46:14;;;;;;;0.85;0.80;;;;;;;;;;10515240;28;20048;-71
2022/04/17 23:51:14;;;;;;;1.40;1.30;;;;;;;;;;10532856;28;20032;-72
2022/04/17 23:56:14;;;;;;;1.60;1.50;;;;;;;;;;10514845;28;20048;-70
